createdAt,value
2016-10-22T00:16:31.476Z,17.184496
2016-10-22T00:36:37.356Z,17.184496
2016-10-22T00:56:43.435Z,17.122017999999997
2016-10-22T01:16:49.538Z,17.122017999999997
2016-10-22T01:36:55.580Z,17.05954
2016-10-22T01:57:01.529Z,17.05954
2016-10-22T02:17:07.599Z,17.05954
2016-10-22T02:37:13.631Z,17.05954
2016-10-22T02:57:19.801Z,17.05954
2016-10-22T03:17:25.723Z,16.997062
2016-10-22T03:37:31.862Z,16.997062
2016-10-22T03:57:37.944Z,16.997062
2016-10-22T04:17:44.011Z,16.997062
2016-10-22T04:37:50.063Z,16.997062
2016-10-22T04:57:55.827Z,17.122017999999997
2016-10-22T05:18:02.006Z,17.184496
2016-10-22T05:38:08.197Z,17.184496
2016-10-22T05:58:14.186Z,17.122017999999997
2016-10-22T06:18:20.273Z,17.122017999999997
2016-10-22T06:58:32.363Z,17.246973999999998
2016-10-22T07:18:38.495Z,17.309452
2016-10-22T07:38:44.402Z,17.309452
2016-10-22T07:58:50.444Z,17.246973999999998
2016-10-22T08:18:56.504Z,17.246973999999998
2016-10-22T08:39:02.734Z,17.246973999999998
2016-10-22T08:59:08.618Z,17.309452
2016-10-22T09:19:14.846Z,17.434407999999998
2016-10-22T09:39:20.676Z,17.434407999999998
2016-10-22T09:59:26.718Z,17.434407999999998
2016-10-22T10:19:32.663Z,17.496886
2016-10-22T10:39:38.817Z,17.434407999999998
2016-10-22T10:59:44.852Z,17.496886
2016-10-22T11:19:50.906Z,17.434407999999998
2016-10-22T11:39:56.972Z,17.434407999999998
2016-10-22T12:00:03.028Z,17.434407999999998
2016-10-22T12:20:09.125Z,17.496886
2016-10-22T12:40:15.006Z,17.559364
2016-10-22T13:00:21.199Z,17.496886
2016-10-22T13:20:27.584Z,17.496886
2016-10-22T13:40:33.107Z,17.496886
2016-10-22T14:00:39.210Z,17.246973999999998
2016-10-22T14:20:45.263Z,17.122017999999997
2016-10-22T14:40:51.338Z,17.05954
2016-10-22T15:00:57.396Z,17.05954
2016-10-22T15:21:03.463Z,17.05954
2016-10-22T15:41:09.413Z,17.05954
2016-10-22T16:01:15.505Z,17.05954
2016-10-22T16:21:21.555Z,17.05954
2016-10-22T16:41:27.673Z,16.997062
2016-10-22T17:01:33.654Z,17.05954
2016-10-22T17:21:39.527Z,17.05954
2016-10-22T17:41:45.799Z,17.05954
2016-10-22T18:01:51.831Z,17.05954
2016-10-22T18:21:57.832Z,17.05954
2016-10-22T18:42:03.861Z,17.05954
2016-10-22T19:02:10.076Z,17.05954
2016-10-22T19:22:15.982Z,17.05954
2016-10-22T19:42:21.935Z,17.122017999999997
2016-10-22T20:02:27.972Z,17.122017999999997
2016-10-22T20:22:34.081Z,17.122017999999997
2016-10-22T20:42:40.190Z,17.122017999999997
2016-10-22T21:02:46.201Z,17.122017999999997
2016-10-22T21:22:52.269Z,17.122017999999997
2016-10-22T21:42:58.301Z,17.05954
2016-10-22T22:03:04.370Z,17.05954
2016-10-22T22:23:10.322Z,16.997062
2016-10-22T22:43:16.455Z,16.997062
2016-10-22T23:03:22.519Z,16.997062
2016-10-22T23:23:28.566Z,16.934583999999997
2016-10-22T23:43:34.639Z,16.934583999999997
